Time;durP1;ratioP1;P1;durP2;ratioP2;P2;SDS_P1;SDS_P2;PMS_P1;PMS_P2;Temp;Humidity;BMP_temperature;BMP_pressure;BME280_temperature;BME280_humidity;BME280_pressure;Samples;Min_cycle;Max_cycle;Signal;HPM_P1;HPM_P2
2021/09/25 00:01:41;;;;;;;12.18;7.68;;;15.30;89.70;;;;;;5055011;28;20021;-37
2021/09/25 00:04:07;;;;;;;12.80;9.23;;;15.30;89.70;;;;;;5055097;28;20389;-37
2021/09/25 00:06:33;;;;;;;14.10;6.70;;;15.30;89.70;;;;;;5055236;28;20021;-37
2021/09/25 00:08:58;;;;;;;13.02;7.32;;;15.30;89.70;;;;;;5054982;28;20029;-37
2021/09/25 00:11:26;;;;;;;13.70;7.53;;;15.30;89.70;;;;;;5055166;28;20531;-37
2021/09/25 00:13:52;;;;;;;14.65;8.15;;;15.30;90.00;;;;;;5055093;28;20105;-37
2021/09/25 00:16:18;;;;;;;15.32;8.07;;;15.30;90.00;;;;;;5054807;28;20053;-37
2021/09/25 00:18:43;;;;;;;13.13;8.00;;;15.20;90.00;;;;;;5054613;28;20044;-36
2021/09/25 00:21:09;;;;;;;16.13;8.68;;;15.20;89.90;;;;;;5054660;28;20067;-36
2021/09/25 00:23:35;;;;;;;16.13;8.77;;;15.10;90.20;;;;;;5055786;28;20334;-36
2021/09/25 00:26:00;;;;;;;18.17;7.95;;;15.20;90.30;;;;;;5054815;28;20025;-36
2021/09/25 00:28:26;;;;;;;16.35;8.18;;;15.10;90.30;;;;;;5053309;28;20079;-36
2021/09/25 00:30:52;;;;;;;17.30;8.45;;;15.10;90.30;;;;;;5054809;28;20461;-37
2021/09/25 00:33:17;;;;;;;15.95;10.02;;;15.10;90.30;;;;;;5055324;28;20021;-36
2021/09/25 00:35:43;;;;;;;18.55;8.60;;;15.10;90.30;;;;;;5054385;28;20021;-36
2021/09/25 00:38:09;;;;;;;14.77;8.50;;;15.10;90.30;;;;;;5054443;28;20463;-37
2021/09/25 00:40:34;;;;;;;12.15;7.65;;;15.10;90.10;;;;;;5054275;28;20025;-36
2021/09/25 00:43:00;;;;;;;19.23;8.02;;;15.10;90.30;;;;;;5053210;28;20037;-36
2021/09/25 00:45:26;;;;;;;11.75;7.88;;;15.00;90.40;;;;;;5053764;28;20032;-36
2021/09/25 00:47:52;;;;;;;15.57;8.60;;;14.90;90.80;;;;;;5054082;28;20104;-37
2021/09/25 00:50:19;;;;;;;14.73;8.20;;;15.00;90.50;;;;;;5054402;28;20028;-36
2021/09/25 00:52:45;;;;;;;18.98;8.57;;;14.90;90.50;;;;;;5054289;28;20028;-36
2021/09/25 00:55:12;;;;;;;17.73;9.57;;;14.90;90.70;;;;;;5054212;28;20058;-36
2021/09/25 00:57:38;;;;;;;12.07;8.23;;;14.90;90.70;;;;;;5053981;28;20033;-37
2021/09/25 01:00:06;;;;;;;18.63;9.38;;;14.90;90.60;;;;;;5054104;28;20035;-37
2021/09/25 01:02:36;;;;;;;19.13;9.57;;;14.80;90.90;;;;;;5053908;28;20033;-37
2021/09/25 01:05:03;;;;;;;;;;;14.80;91.10;;;;;;5054207;28;20125;-37
2021/09/25 01:07:28;;;;;;;15.98;8.73;;;14.80;91.40;;;;;;5053535;28;19970;-37
2021/09/25 01:09:55;;;;;;;21.38;9.50;;;14.70;91.40;;;;;;5053724;28;20021;-37
2021/09/25 01:12:21;;;;;;;14.45;8.43;;;14.70;91.50;;;;;;5053531;28;20032;-37
2021/09/25 01:14:47;;;;;;;17.08;10.63;;;14.80;91.20;;;;;;5053748;28;20438;-37
2021/09/25 01:17:13;;;;;;;13.00;8.27;;;14.70;91.50;;;;;;5053457;28;20052;-37
2021/09/25 01:19:43;;;;;;;18.63;9.07;;;14.70;91.30;;;;;;5053565;28;20037;-37
2021/09/25 01:22:09;;;;;;;13.48;9.57;;;14.60;91.40;;;;;;5053711;28;20481;-37
2021/09/25 01:24:36;;;;;;;13.70;8.57;;;14.50;91.60;;;;;;5053450;28;20032;-37
2021/09/25 01:27:02;;;;;;;13.85;8.10;;;14.50;91.80;;;;;;5053245;28;20028;-36
2021/09/25 01:29:29;;;;;;;16.75;8.65;;;14.50;91.90;;;;;;5053279;28;20112;-37
2021/09/25 01:31:54;;;;;;;17.20;9.48;;;14.60;91.50;;;;;;5053129;28;20488;-38
2021/09/25 01:34:20;;;;;;;19.20;9.15;;;14.70;91.40;;;;;;5052711;28;20021;-41
2021/09/25 01:36:47;;;;;;;14.07;8.98;;;14.80;91.30;;;;;;5052886;28;20029;-37
2021/09/25 01:39:13;;;;;;;14.55;8.30;;;14.80;91.20;;;;;;5052871;28;20024;-37
2021/09/25 01:41:38;;;;;;;12.25;8.25;;;14.80;90.80;;;;;;5053174;28;20037;-37
2021/09/25 01:44:04;;;;;;;11.88;8.70;;;14.80;90.90;;;;;;5052808;28;20029;-37
2021/09/25 01:46:30;;;;;;;17.90;8.40;;;14.90;90.30;;;;;;5053089;28;20067;-37
2021/09/25 01:48:55;;;;;;;12.93;8.70;;;15.00;90.20;;;;;;5053187;28;20303;-37
2021/09/25 01:51:21;;;;;;;16.20;8.35;;;15.00;89.80;;;;;;5053065;28;20025;-36
2021/09/25 01:53:47;;;;;;;10.93;7.65;;;14.80;90.20;;;;;;5051388;28;20025;-37
2021/09/25 01:56:14;;;;;;;13.05;8.80;;;14.80;90.50;;;;;;5052634;28;20043;-37
2021/09/25 01:58:41;;;;;;;17.98;8.85;;;14.80;90.40;;;;;;5052668;28;20024;-48
2021/09/25 02:01:08;;;;;;;15.57;7.82;;;14.90;90.50;;;;;;5051325;28;20473;-48
2021/09/25 02:03:35;;;;;;;17.85;8.23;;;15.00;90.10;;;;;;5051433;28;20082;-48
2021/09/25 02:06:03;;;;;;;15.13;8.73;;;15.00;90.20;;;;;;5053543;28;20461;-47
2021/09/25 02:08:30;;;;;;;13.38;8.93;;;15.10;90.00;;;;;;5052753;28;20443;-48
2021/09/25 02:10:55;;;;;;;14.52;7.22;;;15.00;89.60;;;;;;5053030;28;20417;-48
2021/09/25 02:13:21;;;;;;;14.48;8.13;;;14.90;90.00;;;;;;5052514;28;20032;-47
2021/09/25 02:15:47;;;;;;;14.23;8.93;;;14.90;90.30;;;;;;5052652;28;20024;-47
2021/09/25 02:18:12;;;;;;;13.93;7.80;;;14.90;90.30;;;;;;5052347;28;20493;-48
2021/09/25 02:20:38;;;;;;;13.73;7.20;;;14.80;90.50;;;;;;5052548;28;20032;-48
2021/09/25 02:23:04;;;;;;;17.70;7.47;;;14.90;90.70;;;;;;5052774;28;20025;-48
2021/09/25 02:25:29;;;;;;;10.82;7.13;;;15.00;90.00;;;;;;5053414;28;20113;-47
2021/09/25 02:27:55;;;;;;;12.43;8.05;;;15.20;89.70;;;;;;5056411;28;20123;-48
2021/09/25 02:30:22;;;;;;;13.88;8.55;;;15.20;89.20;;;;;;5056460;28;20044;-47
2021/09/25 02:32:48;;;;;;;10.02;6.65;;;15.10;89.30;;;;;;5056371;28;20027;-47
2021/09/25 02:35:16;;;;;;;12.63;7.03;;;15.10;89.50;;;;;;5056628;28;20025;-49
2021/09/25 02:37:42;;;;;;;14.68;7.22;;;15.00;89.80;;;;;;5056604;28;20029;-52
2021/09/25 02:40:08;;;;;;;10.90;7.32;;;15.20;89.40;;;;;;5056177;28;20519;-49
2021/09/25 02:42:34;;;;;;;13.18;7.75;;;15.10;89.00;;;;;;5056862;28;20059;-50
2021/09/25 02:45:00;;;;;;;11.45;7.18;;;15.10;89.30;;;;;;5056400;28;20132;-49
2021/09/25 02:47:26;;;;;;;13.27;6.95;;;15.20;88.70;;;;;;5054712;28;20507;-47
2021/09/25 02:49:52;;;;;;;12.80;7.68;;;15.20;89.00;;;;;;5056069;28;20488;-50
2021/09/25 02:52:17;;;;;;;12.45;7.68;;;15.20;88.70;;;;;;5056633;28;20188;-49
2021/09/25 02:54:43;;;;;;;11.75;6.85;;;15.10;88.80;;;;;;5056068;28;20029;-48
2021/09/25 02:57:08;;;;;;;13.68;8.13;;;15.20;88.60;;;;;;5055949;28;20430;-47
2021/09/25 02:59:34;;;;;;;10.73;7.18;;;15.20;88.50;;;;;;5056021;28;20021;-50
2021/09/25 03:02:00;;;;;;;14.90;7.72;;;15.20;88.30;;;;;;5055688;28;20385;-48
2021/09/25 03:04:26;;;;;;;14.40;8.05;;;15.20;88.50;;;;;;5056196;28;20043;-48
2021/09/25 03:06:51;;;;;;;15.30;6.80;;;15.20;88.20;;;;;;5055676;28;20530;-47
2021/09/25 03:09:17;;;;;;;12.35;9.50;;;15.10;88.50;;;;;;5055980;28;20021;-47
2021/09/25 03:11:42;;;;;;;13.48;6.35;;;15.10;88.50;;;;;;5055932;28;20445;-47
2021/09/25 03:14:08;;;;;;;9.15;6.00;;;15.20;88.40;;;;;;5055524;28;20021;-48
2021/09/25 03:16:34;;;;;;;16.27;7.20;;;15.20;88.30;;;;;;5055643;28;20025;-52
2021/09/25 03:18:59;;;;;;;8.85;6.47;;;15.20;88.20;;;;;;5054247;28;20052;-48
2021/09/25 03:21:25;;;;;;;8.82;6.13;;;15.30;87.90;;;;;;5054523;28;20036;-48
2021/09/25 03:23:51;;;;;;;10.70;7.13;;;15.30;88.00;;;;;;5054486;28;20032;-48
2021/09/25 03:26:16;;;;;;;13.68;8.05;;;15.20;87.70;;;;;;5054340;28;20025;-49
2021/09/25 03:28:42;;;;;;;12.52;6.80;;;15.30;87.70;;;;;;5054211;28;20021;-50
2021/09/25 03:31:08;;;;;;;11.13;6.82;;;15.30;87.40;;;;;;5054095;28;20120;-46
2021/09/25 03:33:34;;;;;;;13.18;6.68;;;15.30;87.50;;;;;;5054239;28;20056;-47
2021/09/25 03:35:59;;;;;;;11.48;7.65;;;15.20;87.70;;;;;;5053527;28;20495;-50
2021/09/25 03:38:27;;;;;;;9.85;6.28;;;15.20;87.60;;;;;;5035882;28;20029;-48
2021/09/25 03:40:53;;;;;;;11.65;6.45;;;15.30;87.20;;;;;;5054143;28;20465;-49
2021/09/25 03:43:19;;;;;;;10.40;6.13;;;15.30;87.00;;;;;;5053838;28;20025;-47
2021/09/25 03:45:45;;;;;;;10.88;6.97;;;15.30;86.70;;;;;;5054008;28;20150;-52
2021/09/25 03:48:11;;;;;;;11.52;6.88;;;15.30;86.80;;;;;;5053668;28;20538;-51
2021/09/25 03:50:37;;;;;;;12.85;7.93;;;15.30;86.80;;;;;;5053744;28;20131;-48
2021/09/25 03:53:03;;;;;;;8.82;5.78;;;15.30;87.10;;;;;;5053614;28;20021;-48
2021/09/25 03:55:29;;;;;;;13.75;7.78;;;15.30;87.00;;;;;;5054062;28;20082;-47
2021/09/25 03:57:58;;;;;;;13.13;7.40;;;15.30;86.70;;;;;;5053841;28;20029;-47
2021/09/25 04:00:24;;;;;;;10.20;7.05;;;15.40;86.50;;;;;;5052253;28;20025;-49
2021/09/25 04:02:51;;;;;;;10.43;6.90;;;15.30;86.90;;;;;;5053755;28;20433;-48
2021/09/25 04:05:18;;;;;;;9.95;5.72;;;15.30;86.80;;;;;;5053549;28;20047;-48
2021/09/25 04:07:45;;;;;;;11.07;6.65;;;15.30;86.60;;;;;;5053676;28;20087;-48
2021/09/25 04:10:11;;;;;;;13.57;7.13;;;15.30;86.60;;;;;;5052157;28;20048;-51
2021/09/25 04:12:38;;;;;;;9.82;6.53;;;15.40;86.40;;;;;;5053211;28;20025;-48
2021/09/25 04:15:05;;;;;;;11.80;6.38;;;15.30;86.30;;;;;;5053337;28;20028;-51
2021/09/25 04:17:30;;;;;;;13.50;7.37;;;15.30;86.50;;;;;;5013589;28;1150361;-51
2021/09/25 04:19:56;;;;;;;14.00;6.38;;;15.40;86.50;;;;;;5054571;28;20033;-51
2021/09/25 04:22:22;;;;;;;10.48;6.25;;;15.40;86.50;;;;;;5054754;28;20108;-51
2021/09/25 04:24:48;;;;;;;8.63;6.43;;;15.30;86.50;;;;;;5053524;28;20040;-48
2021/09/25 04:27:13;;;;;;;10.65;5.95;;;15.40;86.30;;;;;;5054673;28;20373;-48
2021/09/25 04:29:39;;;;;;;10.55;6.60;;;15.30;86.30;;;;;;5054379;28;20469;-50
2021/09/25 04:32:05;;;;;;;10.57;6.25;;;15.30;86.50;;;;;;5052952;28;20060;-50
2021/09/25 04:34:32;;;;;;;11.43;6.30;;;15.30;86.50;;;;;;5054198;28;20040;-48
2021/09/25 04:36:58;;;;;;;12.88;6.18;;;15.40;86.40;;;;;;5054363;28;20025;-48
2021/09/25 04:39:26;;;;;;;14.13;6.90;;;15.30;86.70;;;;;;5054732;28;20025;-47
2021/09/25 04:41:52;;;;;;;8.75;5.85;;;15.30;86.90;;;;;;5054026;28;20029;-48
2021/09/25 04:44:18;;;;;;;16.63;6.88;;;15.30;86.80;;;;;;5054059;28;20033;-48
2021/09/25 04:46:45;;;;;;;11.20;6.70;;;15.30;86.70;;;;;;5053746;28;20424;-47
2021/09/25 04:49:11;;;;;;;12.98;6.95;;;15.30;86.50;;;;;;5053375;28;20032;-49
2021/09/25 04:51:36;;;;;;;10.43;6.50;;;15.40;86.30;;;;;;5053900;28;20017;-50
2021/09/25 04:54:03;;;;;;;11.68;6.45;;;15.30;86.90;;;;;;5053834;28;20329;-49
2021/09/25 04:56:30;;;;;;;12.98;6.72;;;15.30;86.60;;;;;;5053581;28;20103;-48
2021/09/25 04:58:56;;;;;;;10.52;6.47;;;15.30;86.90;;;;;;5053670;28;20040;-47
2021/09/25 05:01:22;;;;;;;9.73;6.53;;;15.30;86.80;;;;;;5052276;28;20028;-52
2021/09/25 05:03:48;;;;;;;10.07;6.72;;;15.30;86.90;;;;;;5054149;28;20052;-49
2021/09/25 05:06:14;;;;;;;9.68;6.13;;;15.40;86.80;;;;;;5053293;28;20037;-48
2021/09/25 05:08:40;;;;;;;11.05;6.30;;;15.50;86.20;;;;;;5053300;28;20040;-49
2021/09/25 05:11:06;;;;;;;14.45;6.40;;;15.30;86.60;;;;;;5053527;28;20389;-47
2021/09/25 05:13:31;;;;;;;8.43;5.75;;;15.30;86.70;;;;;;5053197;28;20528;-51
2021/09/25 05:15:57;;;;;;;13.45;6.70;;;15.30;86.70;;;;;;5053389;28;20017;-47
2021/09/25 05:18:23;;;;;;;10.38;6.90;;;15.30;86.70;;;;;;5052934;28;20037;-47
2021/09/25 05:20:49;;;;;;;10.05;6.32;;;15.40;86.30;;;;;;5053160;28;20136;-47
2021/09/25 05:23:15;;;;;;;12.30;6.72;;;15.40;86.20;;;;;;5053302;28;20104;-50
2021/09/25 05:25:41;;;;;;;8.65;6.07;;;15.40;86.40;;;;;;5053757;28;20120;-48
2021/09/25 05:28:08;;;;;;;10.43;6.50;;;15.40;86.30;;;;;;5053334;28;20473;-49
2021/09/25 05:30:34;;;;;;;13.20;7.05;;;15.40;86.40;;;;;;5051921;28;20067;-47
2021/09/25 05:33:00;;;;;;;11.38;6.13;;;15.40;86.20;;;;;;5054097;28;20338;-49
2021/09/25 05:35:26;;;;;;;13.15;6.30;;;15.40;86.30;;;;;;5053180;28;20059;-50
2021/09/25 05:37:54;;;;;;;13.13;6.78;;;15.30;86.90;;;;;;5053137;28;20037;-50
2021/09/25 05:40:21;;;;;;;14.07;6.63;;;15.30;86.80;;;;;;5051917;28;20025;-46
2021/09/25 05:42:46;;;;;;;9.65;6.68;;;15.40;86.80;;;;;;5053258;28;20059;-51
2021/09/25 05:45:12;;;;;;;13.23;8.15;;;15.40;86.40;;;;;;5052922;28;20029;-48
2021/09/25 05:47:38;;;;;;;11.55;6.60;;;15.40;86.70;;;;;;5052646;28;20131;-48
2021/09/25 05:50:04;;;;;;;13.55;9.27;;;15.40;86.60;;;;;;5052916;28;20079;-48
2021/09/25 05:52:30;;;;;;;12.57;8.05;;;15.40;86.80;;;;;;5052584;28;20055;-47
2021/09/25 05:54:55;;;;;;;13.18;7.25;;;15.50;86.50;;;;;;5052811;28;20131;-49
2021/09/25 05:57:21;;;;;;;11.50;6.43;;;15.50;86.40;;;;;;5052956;28;20036;-51
2021/09/25 05:59:47;;;;;;;11.15;7.13;;;15.40;86.50;;;;;;5052534;28;20029;-50
2021/09/25 06:02:12;;;;;;;12.65;6.90;;;15.40;86.90;;;;;;5052638;28;20063;-52
2021/09/25 06:04:38;;;;;;;13.90;8.15;;;15.50;86.40;;;;;;5052804;28;20170;-51
2021/09/25 06:07:05;;;;;;;13.80;7.05;;;15.50;86.20;;;;;;5052554;28;20029;-52
2021/09/25 06:09:30;;;;;;;15.93;8.02;;;15.70;86.00;;;;;;5052772;28;20329;-51
2021/09/25 06:11:56;;;;;;;11.90;7.53;;;15.70;85.80;;;;;;5052701;28;20021;-48
2021/09/25 06:14:22;;;;;;;16.83;7.53;;;15.50;86.20;;;;;;5051097;28;20477;-50
2021/09/25 06:16:47;;;;;;;11.43;7.13;;;15.40;86.60;;;;;;5050921;28;20068;-53
2021/09/25 06:19:14;;;;;;;18.17;8.52;;;15.50;86.60;;;;;;5052398;28;20052;-50
2021/09/25 06:21:40;;;;;;;13.68;7.82;;;15.70;85.90;;;;;;5052334;28;20487;-51
2021/09/25 06:24:06;;;;;;;12.30;7.38;;;15.70;85.80;;;;;;5053367;28;20100;-49
2021/09/25 06:26:31;;;;;;;15.13;7.60;;;15.50;86.30;;;;;;5052542;28;20096;-52
2021/09/25 06:28:57;;;;;;;13.98;7.90;;;15.60;86.00;;;;;;5051017;28;20024;-49
2021/09/25 06:31:23;;;;;;;15.70;8.30;;;15.60;86.20;;;;;;5052334;28;20025;-50
2021/09/25 06:33:49;;;;;;;18.25;8.48;;;15.70;86.10;;;;;;5052490;28;20405;-51
2021/09/25 06:36:15;;;;;;;15.98;9.05;;;15.80;85.60;;;;;;5052355;28;20052;-52
2021/09/25 06:38:40;;;;;;;14.25;7.50;;;15.70;85.80;;;;;;5050750;28;20032;-49
2021/09/25 06:41:07;;;;;;;12.57;8.00;;;15.70;86.00;;;;;;5052166;28;20025;-51
2021/09/25 06:43:33;;;;;;;13.60;6.78;;;15.60;86.20;;;;;;5052200;28;20107;-52
2021/09/25 06:46:00;;;;;;;12.35;7.30;;;15.80;85.30;;;;;;5052443;28;20119;-46
2021/09/25 06:48:25;;;;;;;11.43;7.50;;;15.70;85.80;;;;;;5052040;28;20040;-50
2021/09/25 06:50:51;;;;;;;15.98;8.57;;;15.80;85.70;;;;;;5052157;28;20029;-50
2021/09/25 06:53:17;;;;;;;26.27;9.13;;;15.90;85.40;;;;;;5052754;28;20017;-50
2021/09/25 06:55:42;;;;;;;16.73;8.02;;;16.00;85.30;;;;;;5052068;28;20063;-49
2021/09/25 06:58:08;;;;;;;14.63;7.53;;;16.00;85.00;;;;;;5051536;28;20037;-47
2021/09/25 07:00:34;;;;;;;18.20;8.50;;;16.10;84.60;;;;;;5052191;28;20036;-49
2021/09/25 07:03:00;;;;;;;13.82;8.02;;;16.20;84.50;;;;;;5051716;28;20464;-48
2021/09/25 07:05:26;;;;;;;13.90;7.93;;;16.10;84.60;;;;;;5052347;28;20021;-49
2021/09/25 07:07:52;;;;;;;16.15;7.97;;;16.30;84.20;;;;;;5052390;28;20025;-49
2021/09/25 07:10:18;;;;;;;15.60;8.00;;;16.30;83.80;;;;;;5050822;28;20064;-49
2021/09/25 07:12:44;;;;;;;14.15;8.80;;;16.10;84.60;;;;;;5055877;28;20341;-49
2021/09/25 07:15:12;;;;;;;12.93;7.05;;;16.10;84.90;;;;;;5055634;28;20101;-52
2021/09/25 07:17:38;;;;;;;16.63;9.13;;;16.20;84.30;;;;;;5055740;28;20045;-49
2021/09/25 07:20:05;;;;;;;14.73;9.23;;;16.20;84.40;;;;;;5055438;28;20098;-50
2021/09/25 07:22:30;;;;;;;13.13;7.35;;;16.10;84.80;;;;;;5055569;28;20061;-49
2021/09/25 07:24:56;;;;;;;13.90;8.45;;;16.20;84.90;;;;;;5055602;28;20094;-53
2021/09/25 07:27:23;;;;;;;14.93;8.35;;;16.30;84.00;;;;;;5055199;28;20065;-50
2021/09/25 07:29:49;;;;;;;14.98;8.63;;;16.40;83.80;;;;;;5055313;28;20025;-50
2021/09/25 07:32:16;;;;;;;13.77;8.57;;;16.40;83.50;;;;;;5055177;28;20073;-47
2021/09/25 07:34:42;;;;;;;16.50;8.48;;;16.50;83.60;;;;;;5055519;28;20112;-51
2021/09/25 07:37:08;;;;;;;19.02;9.05;;;16.60;83.30;;;;;;5054830;28;20122;-48
2021/09/25 07:39:34;;;;;;;12.98;6.93;;;16.60;83.10;;;;;;5055386;28;20040;-52
2021/09/25 07:42:01;;;;;;;15.40;8.15;;;16.70;82.80;;;;;;5055397;28;20029;-51
2021/09/25 07:44:27;;;;;;;13.65;8.40;;;16.70;82.80;;;;;;5055725;28;20021;-49
2021/09/25 07:46:52;;;;;;;12.23;6.43;;;16.50;83.60;;;;;;5054717;28;20024;-52
2021/09/25 07:49:18;;;;;;;14.15;7.80;;;16.40;83.80;;;;;;5055022;28;20029;-52
2021/09/25 07:51:43;;;;;;;11.90;6.82;;;16.50;83.50;;;;;;5053315;28;20116;-51
2021/09/25 07:54:09;;;;;;;11.30;7.18;;;16.70;83.30;;;;;;5054768;28;20044;-49
2021/09/25 07:56:35;;;;;;;12.40;7.97;;;16.80;82.70;;;;;;5054983;28;20025;-50
2021/09/25 07:59:01;;;;;;;12.40;7.13;;;16.80;82.90;;;;;;5054288;28;20029;-52
2021/09/25 08:01:26;;;;;;;11.40;6.70;;;16.80;82.90;;;;;;5054390;28;20017;-53
2021/09/25 08:03:52;;;;;;;12.88;6.68;;;16.70;82.80;;;;;;5054598;28;20029;-50
2021/09/25 08:06:19;;;;;;;13.88;7.25;;;16.80;82.90;;;;;;5054476;28;20115;-49
2021/09/25 08:08:45;;;;;;;9.73;6.40;;;16.80;82.70;;;;;;5054309;28;20089;-48
2021/09/25 08:11:11;;;;;;;12.75;6.53;;;16.90;82.00;;;;;;5054751;28;20108;-53
2021/09/25 08:13:37;;;;;;;15.15;7.03;;;17.10;81.70;;;;;;5054386;28;20025;-50
2021/09/25 08:16:03;;;;;;;6.40;5.10;;;16.90;82.10;;;;;;5054635;28;20487;-52
2021/09/25 08:18:28;;;;;;;10.82;6.55;;;17.10;81.80;;;;;;5053831;28;20179;-51
2021/09/25 08:20:55;;;;;;;11.43;5.95;;;17.10;81.70;;;;;;5054222;28;20056;-50
2021/09/25 08:23:21;;;;;;;9.25;6.70;;;17.00;82.00;;;;;;5053300;28;20025;-49
2021/09/25 08:25:47;;;;;;;14.43;7.03;;;17.00;81.80;;;;;;5052704;28;20036;-50
2021/09/25 08:28:13;;;;;;;16.70;7.80;;;17.00;81.40;;;;;;5054084;28;20457;-49
2021/09/25 08:30:39;;;;;;;8.73;5.95;;;17.20;81.00;;;;;;5054317;28;20043;-49
2021/09/25 08:33:04;;;;;;;10.50;6.95;;;17.40;80.40;;;;;;5053603;28;20021;-50
2021/09/25 08:35:30;;;;;;;12.38;7.35;;;17.50;79.80;;;;;;5054025;28;20021;-53
2021/09/25 08:37:56;;;;;;;11.80;6.50;;;17.60;79.80;;;;;;5052410;28;20025;-48
2021/09/25 08:40:22;;;;;;;8.05;5.60;;;17.50;79.70;;;;;;5053964;28;20461;-48
2021/09/25 08:42:50;;;;;;;11.05;6.28;;;17.50;79.70;;;;;;5053935;28;20025;-50
2021/09/25 08:45:16;;;;;;;10.43;6.07;;;17.50;79.90;;;;;;5053485;28;20060;-48
2021/09/25 08:47:42;;;;;;;11.00;6.55;;;17.50;79.70;;;;;;5053726;28;20071;-51
2021/09/25 08:50:10;;;;;;;13.32;8.38;;;17.70;79.40;;;;;;5053750;28;20070;-49
2021/09/25 08:52:35;;;;;;;9.57;5.88;;;17.80;78.50;;;;;;5053706;28;20040;-48
2021/09/25 08:55:02;;;;;;;7.13;5.47;;;17.70;78.70;;;;;;5053500;28;20025;-49
2021/09/25 08:57:28;;;;;;;11.10;6.57;;;17.80;78.70;;;;;;5053921;28;20493;-55
2021/09/25 08:59:53;;;;;;;10.02;5.82;;;17.60;79.10;;;;;;5053494;28;20036;-49
2021/09/25 09:02:20;;;;;;;11.48;6.43;;;17.60;79.00;;;;;;5054519;28;20020;-49
2021/09/25 09:04:54;;;;;;;11.95;6.40;;;17.80;78.00;;;;;;5053290;28;20032;-51
2021/09/25 09:07:23;;;;;;;9.60;5.75;;;17.80;78.40;;;;;;5053194;28;20021;-51
2021/09/25 09:09:49;;;;;;;10.95;5.95;;;18.20;77.40;;;;;;5053287;28;20032;-51
2021/09/25 09:12:24;;;;;;;11.90;5.95;;;17.90;77.80;;;;;;5052962;28;20064;-49
2021/09/25 09:14:51;;;;;;;7.47;5.95;;;17.80;78.30;;;;;;5053049;28;20032;-49
2021/09/25 09:17:25;;;;;;;11.32;5.57;;;17.90;78.20;;;;;;5052852;28;20035;-49
2021/09/25 09:19:52;;;;;;;8.75;5.03;;;18.30;77.00;;;;;;5053348;28;20040;-49
2021/09/25 09:22:20;;;;;;;15.43;7.70;;;18.10;77.20;;;;;;5052291;28;20021;-48
2021/09/25 09:25:01;;;;;;;7.55;5.10;;;18.10;77.20;;;;;;5052666;28;20029;-50
2021/09/25 09:27:28;;;;;;;10.68;5.35;;;18.20;76.40;;;;;;5053620;28;20024;-49
2021/09/25 09:30:11;;;;;;;7.10;4.38;;;18.10;76.10;;;;;;5053093;28;20504;-52
2021/09/25 09:32:40;;;;;;;7.30;5.00;;;18.00;76.30;;;;;;5053022;28;20104;-51
2021/09/25 09:35:11;;;;;;;7.65;5.05;;;18.20;75.80;;;;;;5051203;28;20024;-48
2021/09/25 09:37:36;;;;;;;13.90;6.93;;;18.20;75.90;;;;;;5051208;28;20032;-49
2021/09/25 09:40:05;;;;;;;6.13;4.68;;;18.20;76.20;;;;;;5052452;28;20029;-48
2021/09/25 09:42:32;;;;;;;7.65;4.85;;;18.20;76.00;;;;;;5052236;28;20554;-48
2021/09/25 09:44:59;;;;;;;5.57;4.13;;;18.30;75.30;;;;;;5052295;28;20090;-48
2021/09/25 09:47:25;;;;;;;5.75;4.15;;;18.10;76.30;;;;;;5052729;28;20025;-49
2021/09/25 09:49:56;;;;;;;7.50;4.38;;;18.30;76.10;;;;;;5052400;28;20066;-49
2021/09/25 09:52:22;;;;;;;8.70;4.68;;;18.40;74.90;;;;;;5052532;28;20024;-49
2021/09/25 09:54:53;;;;;;;4.78;4.10;;;18.40;75.00;;;;;;5052231;28;20025;-49
2021/09/25 09:57:20;;;;;;;5.60;4.22;;;18.50;75.40;;;;;;5052237;28;20104;-48
2021/09/25 09:59:48;;;;;;;13.88;5.25;;;18.90;74.00;;;;;;5052345;28;20054;-48
2021/09/25 10:02:14;;;;;;;9.25;4.88;;;19.00;73.80;;;;;;5052085;28;20032;-48
2021/09/25 10:04:41;;;;;;;4.03;3.58;;;19.00;74.00;;;;;;5052088;28;20024;-49
2021/09/25 10:07:08;;;;;;;6.00;3.95;;;18.90;74.00;;;;;;5052043;28;20082;-50
2021/09/25 10:09:36;;;;;;;6.68;3.50;;;19.10;73.30;;;;;;5052070;28;20021;-49
2021/09/25 10:12:07;;;;;;;7.30;4.07;;;19.00;73.60;;;;;;5052114;28;20029;-49
2021/09/25 10:14:37;;;;;;;5.93;3.92;;;19.30;72.20;;;;;;5050886;28;20029;-48
2021/09/25 10:17:06;;;;;;;6.53;3.42;;;19.30;71.50;;;;;;5051953;28;20028;-49
2021/09/25 10:19:34;;;;;;;7.18;4.38;;;18.80;73.10;;;;;;5051722;28;20520;-47
2021/09/25 10:22:22;;;;;;;6.57;4.85;;;18.70;73.90;;;;;;5050493;28;20021;-49
2021/09/25 10:24:51;;;;;;;8.85;4.60;;;19.30;72.50;;;;;;5052262;28;20520;-48
2021/09/25 10:27:18;;;;;;;10.55;4.82;;;19.30;71.30;;;;;;5051986;28;20389;-47
2021/09/25 10:29:49;;;;;;;7.47;4.22;;;19.10;72.20;;;;;;5051918;28;20465;-51
2021/09/25 10:32:31;;;;;;;4.40;3.40;;;19.10;72.30;;;;;;5052169;28;20059;-48
2021/09/25 10:35:05;;;;;;;5.85;3.60;;;19.00;71.90;;;;;;5051760;28;20025;-50
2021/09/25 10:37:41;;;;;;;5.63;3.60;;;19.00;72.30;;;;;;5051714;28;20426;-49
2021/09/25 10:40:15;;;;;;;7.78;3.42;;;18.90;72.70;;;;;;5051548;28;20021;-48
2021/09/25 10:43:05;;;;;;;7.28;4.32;;;19.00;73.10;;;;;;5051834;28;20025;-49
2021/09/25 10:45:38;;;;;;;8.80;3.90;;;19.30;71.70;;;;;;5051545;28;20075;-49
2021/09/25 10:48:08;;;;;;;5.25;3.70;;;19.50;71.10;;;;;;5056306;28;20033;-48
2021/09/25 10:50:36;;;;;;;6.33;3.57;;;19.60;70.60;;;;;;5055711;28;20158;-49
2021/09/25 10:53:17;;;;;;;5.03;3.42;;;19.80;70.20;;;;;;5055613;28;20079;-52
2021/09/25 10:55:48;;;;;;;5.57;3.75;;;19.80;70.20;;;;;;5055747;28;20024;-51
2021/09/25 10:58:27;;;;;;;5.88;3.40;;;19.90;69.60;;;;;;5055831;28;20087;-49
2021/09/25 11:01:08;;;;;;;7.90;3.80;;;19.70;69.70;;;;;;5055536;28;20028;-49
2021/09/25 11:03:49;;;;;;;6.20;3.90;;;19.80;69.90;;;;;;5055102;28;20025;-48
2021/09/25 11:06:14;;;;;;;;;;;19.60;70.80;;;;;;5055853;28;20056;-50
2021/09/25 11:09:08;;;;;;;5.22;4.43;;;19.50;70.50;;;;;;5055336;28;19964;-48
2021/09/25 11:11:39;;;;;;;6.38;3.72;;;19.60;70.50;;;;;;5053918;28;20059;-49
2021/09/25 11:14:05;;;;;;;;;;;19.80;69.60;;;;;;5055617;28;20017;-49
2021/09/25 11:16:56;;;;;;;5.93;3.90;;;19.90;69.30;;;;;;5055025;28;19995;-47
2021/09/25 11:19:22;;;;;;;6.32;4.28;;;20.00;69.30;;;;;;5054863;28;20055;-48
2021/09/25 11:21:49;;;;;;;8.98;4.55;;;20.30;68.70;;;;;;5055152;28;20108;-52
2021/09/25 11:24:17;;;;;;;7.07;3.95;;;20.20;68.80;;;;;;5055092;28;20029;-47
2021/09/25 11:26:43;;;;;;;5.40;4.43;;;20.20;68.50;;;;;;5054661;28;20036;-50
2021/09/25 11:29:09;;;;;;;9.32;4.03;;;20.20;68.60;;;;;;5055322;28;20032;-47
2021/09/25 11:31:36;;;;;;;7.07;4.38;;;20.20;68.50;;;;;;5054997;28;20021;-51
2021/09/25 11:34:03;;;;;;;8.55;4.38;;;19.90;70.00;;;;;;5055204;28;20060;-52
2021/09/25 11:36:29;;;;;;;8.82;4.53;;;20.30;69.20;;;;;;5054976;28;20090;-52
2021/09/25 11:38:55;;;;;;;6.43;5.43;;;20.50;67.50;;;;;;5054749;28;20056;-48
2021/09/25 11:41:21;;;;;;;6.18;4.53;;;20.60;67.40;;;;;;5054504;28;20438;-52
2021/09/25 11:43:55;;;;;;;4.70;3.85;;;20.80;66.70;;;;;;5054602;28;20094;-51
2021/09/25 11:46:23;;;;;;;11.65;7.75;;;21.10;66.50;;;;;;5054770;28;20040;-52
2021/09/25 11:48:49;;;;;;;5.63;4.22;;;21.10;65.70;;;;;;5054972;28;20029;-53
2021/09/25 11:51:22;;;;;;;7.65;4.45;;;21.10;65.80;;;;;;5054876;28;20350;-50
2021/09/25 11:53:53;;;;;;;5.07;3.85;;;20.80;65.10;;;;;;5052863;28;20089;-50
2021/09/25 11:56:27;;;;;;;14.68;6.38;;;20.30;68.00;;;;;;5054246;28;20087;-50
2021/09/25 11:58:52;;;;;;;6.78;4.28;;;20.40;67.90;;;;;;5054235;28;20037;-50
2021/09/25 12:01:18;;;;;;;8.98;4.97;;;20.60;66.60;;;;;;5054169;28;20487;-52
2021/09/25 12:03:44;;;;;;;17.13;5.53;;;20.80;65.90;;;;;;5054481;28;20029;-51
2021/09/25 12:06:09;;;;;;;6.65;4.60;;;20.90;65.00;;;;;;5053980;28;20071;-49
2021/09/25 12:08:35;;;;;;;7.30;4.95;;;20.60;65.50;;;;;;5053992;28;20029;-48
2021/09/25 12:11:04;;;;;;;6.80;5.28;;;20.80;65.40;;;;;;5054523;28;20424;-52
2021/09/25 12:13:37;;;;;;;15.35;10.30;;;21.10;64.00;;;;;;5054122;28;20052;-51
2021/09/25 12:16:10;;;;;;;11.40;6.88;;;21.30;63.80;;;;;;5054192;28;20017;-48
2021/09/25 12:18:38;;;;;;;8.85;6.95;;;21.40;64.10;;;;;;5053621;28;20053;-51
2021/09/25 12:21:08;;;;;;;9.32;4.75;;;21.10;65.00;;;;;;5054049;28;20350;-49
2021/09/25 12:23:33;;;;;;;6.95;4.30;;;21.30;64.70;;;;;;5054277;28;20083;-48
2021/09/25 12:26:01;;;;;;;8.55;4.82;;;20.90;65.50;;;;;;5054091;28;20427;-50
2021/09/25 12:28:38;;;;;;;9.65;5.03;;;21.00;65.80;;;;;;5054060;28;20029;-49
2021/09/25 12:31:09;;;;;;;9.65;6.20;;;20.70;66.80;;;;;;5054250;28;20017;-48
2021/09/25 12:33:50;;;;;;;7.13;4.85;;;20.70;67.30;;;;;;5053816;28;20124;-49
2021/09/25 12:36:17;;;;;;;9.38;5.03;;;21.20;64.90;;;;;;5054594;28;20444;-49
2021/09/25 12:38:45;;;;;;;7.85;5.03;;;21.50;63.90;;;;;;5054159;28;20414;-52
2021/09/25 12:41:14;;;;;;;7.80;4.57;;;21.50;63.80;;;;;;5053728;28;20029;-50